Time;durP1;ratioP1;P1;durP2;ratioP2;P2;SDS_P1;SDS_P2;PMS_P1;PMS_P2;Temp;Humidity;BMP_temperature;BMP_pressure;BME280_temperature;BME280_humidity;BME280_pressure;Samples;Min_cycle;Max_cycle;Signal;HPM_P1;HPM_P2
2023/03/23 00:02:23;;;;;;;;;;;;;;;27.56;21.92;97713.72;5041206;28;20281;-85
2023/03/23 00:04:50;;;;;;;;;;;;;;;27.45;22.39;97705.69;5049137;28;20292;-85
2023/03/23 00:07:20;;;;;;;;;;;;;;;27.62;21.89;97711.84;5053152;28;20317;-85
2023/03/23 00:09:47;;;;;;;;;;;;;;;27.23;22.34;97707.78;5048097;28;19993;-85
2023/03/23 00:12:15;;;;;;;;;;;;;;;27.09;22.33;97714.00;5053481;28;19939;-85
2023/03/23 00:14:41;;;;;;;;;;;;;;;26.93;22.98;97709.41;5052997;28;19921;-85
2023/03/23 00:17:09;;;;;;;;;;;;;;;27.07;22.63;97705.22;5052243;28;19971;-85
2023/03/23 00:19:48;;;;;;;;;;;;;;;27.18;22.95;97709.19;5052957;28;20016;-85
2023/03/23 00:22:15;;;;;;;;;;;;;;;27.00;22.66;97711.16;5050918;28;19921;-85
2023/03/23 00:24:42;;;;;;;;;;;;;;;27.04;23.19;97708.97;5054325;28;19921;-85
2023/03/23 00:27:08;;;;;;;;;;;;;;;27.11;22.48;97705.88;5051192;28;19920;-85
2023/03/23 00:29:34;;;;;;;;;;;;;;;27.03;22.69;97710.19;5053080;28;19921;-85
2023/03/23 00:32:02;;;;;;;;;;;;;;;26.99;22.71;97709.56;5052161;28;19920;-85
2023/03/23 00:34:33;;;;;;;;;;;;;;;26.94;22.83;97704.53;5057406;28;19927;-85
2023/03/23 00:36:59;;;;;;;;;;;;;;;26.82;23.16;97705.41;5058031;28;19982;-85
2023/03/23 00:39:27;;;;;;;;;;;;;;;26.84;23.06;97698.06;5054242;28;19940;-85
2023/03/23 00:41:54;;;;;;;;;;;;;;;26.84;22.93;97703.69;5069915;28;20293;-84
2023/03/23 00:44:23;;;;;;;;;;;;;;;26.74;23.13;97702.84;5054548;28;19921;-85
2023/03/23 00:46:51;;;;;;;;;;;;;;;27.02;22.95;97695.34;5054779;28;20319;-85
2023/03/23 00:49:19;;;;;;;;;;;;;;;27.33;22.62;97693.25;5058382;28;20327;-85
2023/03/23 00:51:45;;;;;;;;;;;;;;;27.52;22.70;97685.66;5052485;28;19921;-85
2023/03/23 00:54:11;;;;;;;;;;;;;;;27.58;22.59;97692.25;5052377;28;20384;-85
2023/03/23 00:56:39;;;;;;;;;;;;;;;27.32;22.64;97688.09;5054885;28;19932;-85
2023/03/23 00:59:05;;;;;;;;;;;;;;;27.28;22.47;97684.63;5053420;28;20396;-85
2023/03/23 01:01:32;;;;;;;;;;;;;;;27.34;22.54;97677.91;5051830;28;19928;-85
2023/03/23 01:04:00;;;;;;;;;;;;;;;27.22;22.15;97683.66;5050725;28;19929;-85
2023/03/23 01:06:27;;;;;;;;;;;;;;;27.07;23.19;97674.22;5052111;28;20346;-85
2023/03/23 01:08:53;;;;;;;;;;;;;;;27.23;22.67;97674.75;5051087;28;20015;-84
2023/03/23 01:11:20;;;;;;;;;;;;;;;27.12;22.82;97679.25;5053863;28;20340;-85
2023/03/23 01:13:46;;;;;;;;;;;;;;;27.19;22.78;97673.34;5054385;28;20281;-85
2023/03/23 01:16:12;;;;;;;;;;;;;;;27.12;22.33;97668.75;5053642;28;20023;-84
2023/03/23 01:18:39;;;;;;;;;;;;;;;27.09;22.71;97668.91;5053583;28;19920;-85
2023/03/23 01:21:06;;;;;;;;;;;;;;;26.88;23.00;97679.00;5052996;28;19975;-85
2023/03/23 01:23:33;;;;;;;;;;;;;;;27.10;22.62;97673.28;5058048;28;19927;-84
2023/03/23 01:26:09;;;;;;;;;;;;;;;26.98;22.89;97674.19;5052544;28;19921;-84
2023/03/23 01:28:35;;;;;;;;;;;;;;;26.92;22.48;97670.41;5043895;28;19921;-85
2023/03/23 01:31:06;;;;;;;;;;;;;;;26.98;23.33;97671.38;5048936;28;20016;-84
2023/03/23 01:33:32;;;;;;;;;;;;;;;27.11;22.74;97672.84;5062993;28;19929;-84
2023/03/23 01:36:04;;;;;;;;;;;;;;;27.02;23.06;97672.81;5053125;28;19921;-84
2023/03/23 01:38:31;;;;;;;;;;;;;;;27.22;22.49;97670.34;5052352;28;20300;-84
2023/03/23 01:40:57;;;;;;;;;;;;;;;27.21;22.75;97665.19;5047213;28;19925;-84
2023/03/23 01:43:23;;;;;;;;;;;;;;;27.21;22.72;97671.59;5047677;28;19920;-85
2023/03/23 01:45:49;;;;;;;;;;;;;;;27.29;22.42;97666.47;5052799;28;20311;-85
2023/03/23 01:48:34;;;;;;;;;;;;;;;27.30;22.51;97666.00;5053886;28;19921;-84
2023/03/23 01:51:12;;;;;;;;;;;;;;;27.21;22.60;97665.19;5053751;28;19917;-84
2023/03/23 01:53:42;;;;;;;;;;;;;;;27.30;22.70;97671.66;5054470;28;19921;-84
2023/03/23 01:56:11;;;;;;;;;;;;;;;27.32;22.45;97671.16;5053417;28;19921;-84
2023/03/23 01:58:38;;;;;;;;;;;;;;;27.30;22.53;97663.19;5054759;28;19925;-84
2023/03/23 02:01:07;;;;;;;;;;;;;;;27.31;23.18;97667.56;5053932;28;19936;-85
2023/03/23 02:03:34;;;;;;;;;;;;;;;27.37;22.13;97671.38;5053154;28;19921;-85
2023/03/23 02:06:00;;;;;;;;;;;;;;;27.33;22.93;97659.41;5052954;28;20376;-85
2023/03/23 02:08:27;;;;;;;;;;;;;;;27.34;22.54;97663.81;5051387;28;19932;-85
2023/03/23 02:10:54;;;;;;;;;;;;;;;27.30;22.21;97670.84;5050440;28;19928;-85
2023/03/23 02:13:21;;;;;;;;;;;;;;;27.28;22.88;97667.72;5047940;28;20614;-85
2023/03/23 02:15:55;;;;;;;;;;;;;;;27.51;22.54;97674.84;5051028;28;20023;-85
2023/03/23 02:18:40;;;;;;;;;;;;;;;27.58;22.69;97664.06;5049667;28;20380;-84
2023/03/23 02:21:25;;;;;;;;;;;;;;;27.54;22.10;97671.09;5049501;28;19951;-85
2023/03/23 02:23:51;;;;;;;;;;;;;;;27.25;23.21;97675.06;5048963;28;20381;-83
2023/03/23 02:26:23;;;;;;;;;;;;;;;27.20;22.80;97674.88;5050143;28;20053;-84
2023/03/23 02:29:02;;;;;;;;;;;;;;;27.38;22.76;97675.75;5045267;28;19928;-84
2023/03/23 02:31:28;;;;;;;;;;;;;;;27.63;22.55;97673.94;5049187;28;19925;-85
2023/03/23 02:34:09;;;;;;;;;;;;;;;27.90;22.29;97671.13;5049907;28;19986;-84
2023/03/23 02:36:43;;;;;;;;;;;;;;;28.15;22.03;97672.84;5050668;28;19921;-84
2023/03/23 02:39:09;;;;;;;;;;;;;;;28.29;21.90;97670.19;5049658;28;19920;-84
2023/03/23 02:42:01;;;;;;;;;;;;;;;28.26;21.37;97676.81;5045154;28;20846;-84
2023/03/23 02:44:29;;;;;;;;;;;;;;;28.20;21.46;97673.03;5046865;28;19928;-84
2023/03/23 02:46:56;;;;;;;;;;;;;;;28.27;21.53;97674.75;5047674;28;20312;-84
2023/03/23 02:49:24;;;;;;;;;;;;;;;27.87;21.25;97680.53;5050903;28;20460;-85
2023/03/23 02:51:51;;;;;;;;;;;;;;;27.25;22.62;97683.53;5042868;28;19927;-84
2023/03/23 02:54:18;;;;;;;;;;;;;;;27.10;23.16;97673.28;5043399;28;20415;-84
2023/03/23 02:56:44;;;;;;;;;;;;;;;27.41;22.57;97676.84;5048084;28;19986;-84
2023/03/23 02:59:10;;;;;;;;;;;;;;;27.35;22.68;97676.66;5051552;28;19925;-84
2023/03/23 03:01:36;;;;;;;;;;;;;;;27.43;22.18;97674.34;5051632;28;19931;-84
2023/03/23 03:04:09;;;;;;;;;;;;;;;27.22;23.27;97670.34;5049768;28;19947;-85
2023/03/23 03:06:48;;;;;;;;;;;;;;;27.25;22.72;97663.81;5046451;28;19962;-85
2023/03/23 03:09:19;;;;;;;;;;;;;;;27.09;23.11;97663.28;5049412;28;19971;-84
2023/03/23 03:11:50;;;;;;;;;;;;;;;27.04;23.26;97658.25;5049174;28;20497;-85
2023/03/23 03:14:24;;;;;;;;;;;;;;;27.05;22.70;97659.81;5050573;28;20018;-85
2023/03/23 03:16:50;;;;;;;;;;;;;;;27.23;23.52;97657.06;5051431;28;19925;-85
2023/03/23 03:19:20;;;;;;;;;;;;;;;27.54;22.65;97654.19;5050179;28;20331;-84
2023/03/23 03:21:48;;;;;;;;;;;;;;;27.63;22.76;97657.00;5050188;28;20422;-85
2023/03/23 03:24:17;;;;;;;;;;;;;;;27.72;22.23;97660.63;5049945;28;19928;-85
2023/03/23 03:26:47;;;;;;;;;;;;;;;27.57;22.24;97656.84;5047500;28;20396;-85
2023/03/23 03:29:17;;;;;;;;;;;;;;;27.68;22.91;97662.78;5041740;28;20002;-85
2023/03/23 03:31:45;;;;;;;;;;;;;;;27.57;22.59;97653.22;5049260;28;19920;-84
2023/03/23 03:34:11;;;;;;;;;;;;;;;27.74;22.37;97651.69;5049182;28;20895;-85
2023/03/23 03:36:38;;;;;;;;;;;;;;;27.94;22.44;97643.53;5052203;28;19921;-84
2023/03/23 03:39:07;;;;;;;;;;;;;;;28.05;21.81;97647.47;5048963;28;19947;-85
2023/03/23 03:41:34;;;;;;;;;;;;;;;27.13;22.65;97652.63;5064358;28;19964;-85
2023/03/23 03:44:00;;;;;;;;;;;;;;;26.99;23.39;97654.00;5050604;28;19921;-85
2023/03/23 03:46:29;;;;;;;;;;;;;;;27.34;22.68;97648.94;5046706;28;20597;-85
2023/03/23 03:48:56;;;;;;;;;;;;;;;27.33;22.25;97655.81;5053201;28;19928;-84
2023/03/23 03:51:23;;;;;;;;;;;;;;;27.19;22.53;97651.56;5055500;28;19921;-85
2023/03/23 03:53:50;;;;;;;;;;;;;;;27.16;23.37;97651.72;5051818;28;20364;-85
2023/03/23 03:56:16;;;;;;;;;;;;;;;27.27;22.78;97643.59;5054559;28;19928;-85
2023/03/23 03:58:42;;;;;;;;;;;;;;;27.31;22.77;97642.19;5053930;28;19921;-85
2023/03/23 04:01:10;;;;;;;;;;;;;;;27.47;22.00;97651.66;5052484;28;20332;-85
2023/03/23 04:03:36;;;;;;;;;;;;;;;27.47;22.88;97643.97;5049529;28;19927;-84
2023/03/23 04:06:03;;;;;;;;;;;;;;;27.45;22.56;97646.47;5054303;28;20372;-84
2023/03/23 04:08:29;;;;;;;;;;;;;;;27.50;22.14;97647.88;5047076;28;20006;-85
2023/03/23 04:10:55;;;;;;;;;;;;;;;27.23;22.43;97651.41;5050235;28;19921;-85
2023/03/23 04:13:21;;;;;;;;;;;;;;;27.03;22.74;97640.53;5065930;28;19928;-84
2023/03/23 04:15:48;;;;;;;;;;;;;;;27.17;22.65;97644.81;5055074;28;19925;-85
2023/03/23 04:18:17;;;;;;;;;;;;;;;27.28;22.69;97648.75;5055027;28;19925;-84
2023/03/23 04:20:48;;;;;;;;;;;;;;;27.42;22.66;97643.81;5051898;28;19921;-84
2023/03/23 04:23:19;;;;;;;;;;;;;;;27.51;22.71;97636.16;5052709;28;20000;-84
2023/03/23 04:25:46;;;;;;;;;;;;;;;27.51;22.63;97644.63;5048879;28;19921;-84
2023/03/23 04:28:13;;;;;;;;;;;;;;;27.42;22.22;97638.97;5053488;28;20392;-84
2023/03/23 04:30:42;;;;;;;;;;;;;;;27.25;22.64;97643.28;5052394;28;19925;-84
2023/03/23 04:33:14;;;;;;;;;;;;;;;27.39;22.48;97639.91;5054543;28;19921;-85
2023/03/23 04:35:41;;;;;;;;;;;;;;;27.53;22.83;97642.09;5049058;28;19928;-84
2023/03/23 04:38:07;;;;;;;;;;;;;;;27.55;22.24;97638.81;5052872;28;19925;-84
2023/03/23 04:40:35;;;;;;;;;;;;;;;27.55;22.79;97638.81;5053217;28;19929;-85
2023/03/23 04:43:05;;;;;;;;;;;;;;;27.67;22.04;97632.25;5054580;28;19920;-85
2023/03/23 04:45:31;;;;;;;;;;;;;;;27.33;23.04;97641.72;5074900;28;19924;-85
2023/03/23 04:47:58;;;;;;;;;;;;;;;27.46;22.23;97641.63;5076278;28;19923;-84
2023/03/23 04:50:26;;;;;;;;;;;;;;;27.50;22.30;97643.03;5059855;28;19921;-84
2023/03/23 04:52:53;;;;;;;;;;;;;;;27.50;22.66;97634.56;5055670;28;19921;-85
2023/03/23 04:55:20;;;;;;;;;;;;;;;27.46;22.35;97631.13;5054085;28;19921;-84
2023/03/23 04:57:46;;;;;;;;;;;;;;;27.49;22.41;97635.84;5049667;28;19928;-85
2023/03/23 05:00:16;;;;;;;;;;;;;;;27.62;22.84;97639.28;5053127;28;19921;-85
2023/03/23 05:02:43;;;;;;;;;;;;;;;27.28;22.78;97636.72;5049840;28;19964;-85
2023/03/23 05:05:10;;;;;;;;;;;;;;;27.52;22.85;97649.00;5048204;28;19986;-85
2023/03/23 05:07:37;;;;;;;;;;;;;;;27.58;22.68;97647.13;5046493;28;19963;-85
2023/03/23 05:10:04;;;;;;;;;;;;;;;27.61;22.65;97645.41;5050521;28;19929;-84
2023/03/23 05:12:30;;;;;;;;;;;;;;;27.73;22.49;97644.47;5056740;28;19925;-86
2023/03/23 05:14:57;;;;;;;;;;;;;;;27.97;22.21;97643.38;5047300;28;20051;-85
2023/03/23 05:17:23;;;;;;;;;;;;;;;28.26;22.24;97637.28;5044510;28;19925;-84
2023/03/23 05:19:53;;;;;;;;;;;;;;;28.33;22.08;97644.63;5047300;28;19921;-84
2023/03/23 05:22:20;;;;;;;;;;;;;;;28.37;21.72;97646.03;5048796;28;19966;-84
2023/03/23 05:24:47;;;;;;;;;;;;;;;28.32;22.75;97646.66;5051375;28;19934;-84
2023/03/23 05:27:14;;;;;;;;;;;;;;;28.49;22.58;97650.72;5050353;28;19928;-84
2023/03/23 05:29:40;;;;;;;;;;;;;;;28.53;22.55;97647.72;5051291;28;19966;-85
2023/03/23 05:32:07;;;;;;;;;;;;;;;28.64;22.50;97639.53;5048512;28;19943;-85
2023/03/23 05:34:34;;;;;;;;;;;;;;;28.92;21.81;97641.00;5048330;28;19960;-84
2023/03/23 05:37:01;;;;;;;;;;;;;;;29.13;22.56;97645.63;5047086;28;20015;-86
2023/03/23 05:39:28;;;;;;;;;;;;;;;29.17;21.86;97642.63;5047028;28;19932;-86
2023/03/23 05:41:54;;;;;;;;;;;;;;;29.34;22.14;97636.09;5049398;28;20379;-86
2023/03/23 05:44:20;;;;;;;;;;;;;;;29.63;21.98;97640.31;5050199;28;19943;-85
2023/03/23 05:46:46;;;;;;;;;;;;;;;29.90;21.02;97642.97;5053093;28;20003;-86
2023/03/23 05:49:13;;;;;;;;;;;;;;;29.91;21.50;97648.16;5046770;28;19925;-86
2023/03/23 05:51:39;;;;;;;;;;;;;;;30.00;21.08;97639.59;5047646;28;20050;-86
2023/03/23 05:54:06;;;;;;;;;;;;;;;30.06;22.09;97642.50;5047680;28;20365;-87
2023/03/23 05:56:32;;;;;;;;;;;;;;;30.09;22.12;97638.72;5054742;28;19928;-87
2023/03/23 05:58:58;;;;;;;;;;;;;;;30.08;23.06;97640.00;5044753;28;19954;-86
2023/03/23 06:01:24;;;;;;;;;;;;;;;30.26;22.86;97642.66;5048289;28;19924;-87
2023/03/23 06:03:53;;;;;;;;;;;;;;;30.17;21.90;97651.22;5048145;28;19948;-87
2023/03/23 06:06:20;;;;;;;;;;;;;;;30.40;23.27;97647.56;5054432;28;19917;-87
2023/03/23 06:08:48;;;;;;;;;;;;;;;30.53;22.17;97650.88;5052132;28;19946;-86
2023/03/23 06:11:14;;;;;;;;;;;;;;;30.71;22.27;97653.50;5054267;28;19921;-87
2023/03/23 06:13:40;;;;;;;;;;;;;;;31.04;22.65;97655.38;5055086;28;20391;-87
2023/03/23 06:16:07;;;;;;;;;;;;;;;31.37;21.91;97650.19;5054654;28;20023;-87
2023/03/23 06:18:33;;;;;;;;;;;;;;;31.54;21.12;97656.91;5053049;28;19921;-87
2023/03/23 06:21:00;;;;;;;;;;;;;;;31.59;22.41;97655.44;5054796;28;19916;-87
2023/03/23 06:23:26;;;;;;;;;;;;;;;31.83;22.74;97651.13;5051973;28;20027;-87
2023/03/23 06:25:57;;;;;;;;;;;;;;;32.03;22.05;97644.66;5054720;28;20335;-87
2023/03/23 06:28:24;;;;;;;;;;;;;;;32.21;22.55;97637.91;5053849;28;19917;-87
2023/03/23 06:36:57;;;;;;;;;;;;;;;32.35;22.11;97643.44;5054409;28;19928;-87
2023/03/23 06:39:23;;;;;;;;;;;;;;;32.36;20.73;97645.03;5054139;28;19916;-86
2023/03/23 06:41:50;;;;;;;;;;;;;;;32.56;21.34;97635.66;5054150;28;20410;-87
2023/03/23 06:44:16;;;;;;;;;;;;;;;32.71;20.17;97639.97;5053198;28;19921;-87
2023/03/23 06:46:42;;;;;;;;;;;;;;;32.75;20.92;97642.56;5048704;28;19956;-87
2023/03/23 06:49:09;;;;;;;;;;;;;;;32.68;20.72;97635.28;5053795;28;19962;-86
2023/03/23 06:51:36;;;;;;;;;;;;;;;32.82;21.75;97632.78;5053839;28;19916;-87
2023/03/23 06:54:02;;;;;;;;;;;;;;;33.01;21.33;97637.66;5054246;28;19916;-87
2023/03/23 06:56:30;;;;;;;;;;;;;;;32.97;20.62;97637.06;5050187;28;19960;-87
2023/03/23 06:58:56;;;;;;;;;;;;;;;32.95;21.17;97636.81;5049958;28;20308;-87
2023/03/23 07:01:22;;;;;;;;;;;;;;;33.00;20.84;97638.88;5051713;28;19967;-87
2023/03/23 07:03:48;;;;;;;;;;;;;;;33.02;20.18;97644.13;5052162;28;19975;-87
2023/03/23 07:06:15;;;;;;;;;;;;;;;32.96;20.54;97640.41;5052498;28;19951;-87
2023/03/23 07:08:42;;;;;;;;;;;;;;;33.09;21.57;97637.97;5053848;28;20395;-87
2023/03/23 07:11:09;;;;;;;;;;;;;;;33.24;20.72;97641.41;5053803;28;20288;-87
2023/03/23 07:13:36;;;;;;;;;;;;;;;32.83;21.01;97638.00;5053708;28;20385;-87
2023/03/23 07:16:04;;;;;;;;;;;;;;;32.76;21.00;97644.13;5053323;28;19948;-87
2023/03/23 07:18:30;;;;;;;;;;;;;;;32.91;20.88;97647.59;5053327;28;19924;-87
2023/03/23 07:20:56;;;;;;;;;;;;;;;32.99;21.23;97642.25;5053699;28;19995;-87
2023/03/23 07:23:22;;;;;;;;;;;;;;;33.18;21.78;97638.56;5054049;28;19948;-87
2023/03/23 07:25:48;;;;;;;;;;;;;;;33.43;20.18;97637.66;5053521;28;19978;-87
2023/03/23 07:28:15;;;;;;;;;;;;;;;33.21;19.60;97640.38;5053520;28;20008;-87
2023/03/23 07:30:41;;;;;;;;;;;;;;;33.24;20.57;97635.72;5053391;28;19912;-87
2023/03/23 07:33:08;;;;;;;;;;;;;;;33.40;20.86;97641.53;5052827;28;19954;-87
2023/03/23 07:35:35;;;;;;;;;;;;;;;33.09;20.56;97641.59;5053628;28;19920;-87
2023/03/23 07:38:02;;;;;;;;;;;;;;;33.26;21.78;97642.47;5053925;28;19916;-87
2023/03/23 07:40:28;;;;;;;;;;;;;;;33.04;20.53;97635.84;5052153;28;19974;-87
2023/03/23 07:42:55;;;;;;;;;;;;;;;33.06;21.14;97642.59;5053126;28;19916;-86
2023/03/23 07:45:22;;;;;;;;;;;;;;;33.21;20.23;97631.81;5053185;28;20011;-85
2023/03/23 07:47:48;;;;;;;;;;;;;;;32.72;19.11;97643.59;5052407;28;19921;-85
2023/03/23 07:50:14;;;;;;;;;;;;;;;32.24;19.63;97648.25;5048282;28;19917;-85
2023/03/23 07:52:41;;;;;;;;;;;;;;;32.34;19.88;97646.81;5032623;28;19986;-85
2023/03/23 07:55:08;;;;;;;;;;;;;;;32.82;21.24;97638.47;5033484;28;19967;-85
2023/03/23 07:57:34;;;;;;;;;;;;;;;32.99;20.89;97633.72;5033521;28;19918;-85
2023/03/23 08:00:03;;;;;;;;;;;;;;;33.23;20.38;97631.34;5051592;28;19924;-85
2023/03/23 08:02:31;;;;;;;;;;;;;;;33.08;21.06;97636.41;5052609;28;19974;-85
2023/03/23 08:05:00;;;;;;;;;;;;;;;33.16;20.98;97632.59;5051756;28;20008;-85
2023/03/23 08:07:26;;;;;;;;;;;;;;;33.30;20.72;97628.78;5053172;28;19917;-85
2023/03/23 08:09:52;;;;;;;;;;;;;;;32.93;20.31;97641.44;5053305;28;19924;-85
2023/03/23 08:12:18;;;;;;;;;;;;;;;33.23;21.13;97640.66;5053213;28;19987;-85
2023/03/23 08:14:44;;;;;;;;;;;;;;;33.41;22.14;97645.16;5051996;28;19921;-85
2023/03/23 08:17:11;;;;;;;;;;;;;;;33.63;20.86;97642.44;5053083;28;20064;-85
2023/03/23 08:19:37;;;;;;;;;;;;;;;33.67;21.02;97645.84;5053219;28;19917;-85
2023/03/23 08:22:03;;;;;;;;;;;;;;;33.81;20.51;97649.78;5053387;28;19978;-85
2023/03/23 08:24:30;;;;;;;;;;;;;;;33.75;19.59;97649.00;5052786;28;19917;-85
2023/03/23 08:26:56;;;;;;;;;;;;;;;33.75;19.05;97641.22;5053097;28;19921;-85
2023/03/23 08:29:22;;;;;;;;;;;;;;;33.53;20.28;97643.97;5051801;28;20024;-85
2023/03/23 08:31:48;;;;;;;;;;;;;;;33.43;20.95;97649.06;5054067;28;19943;-85
2023/03/23 08:34:15;;;;;;;;;;;;;;;33.28;19.16;97651.28;5052416;28;20472;-85
2023/03/23 08:36:43;;;;;;;;;;;;;;;33.53;19.84;97641.13;5054642;28;19920;-85
2023/03/23 08:39:10;;;;;;;;;;;;;;;33.66;19.89;97643.50;5056600;28;19970;-85
2023/03/23 08:41:37;;;;;;;;;;;;;;;33.55;19.84;97644.22;5070199;28;19917;-85
2023/03/23 08:44:04;;;;;;;;;;;;;;;33.53;19.55;97643.97;5054747;28;19925;-85
2023/03/23 08:46:30;;;;;;;;;;;;;;;33.78;20.74;97636.56;5055162;28;20016;-85
2023/03/23 08:48:58;;;;;;;;;;;;;;;33.93;21.28;97649.34;5068863;28;20343;-86
2023/03/23 08:51:25;;;;;;;;;;;;;;;33.88;20.06;97643.59;5056942;28;20016;-85
2023/03/23 08:53:52;;;;;;;;;;;;;;;33.71;20.27;97645.59;5047104;28;20325;-85
2023/03/23 08:56:18;;;;;;;;;;;;;;;33.88;20.42;97641.53;5055499;28;19921;-85
2023/03/23 08:58:44;;;;;;;;;;;;;;;33.81;19.46;97647.72;5056132;28;20285;-85
2023/03/23 09:01:10;;;;;;;;;;;;;;;33.87;19.51;97651.38;5045692;28;19920;-86
2023/03/23 09:03:36;;;;;;;;;;;;;;;33.82;20.11;97654.97;5071353;28;19921;-86
2023/03/23 09:06:04;;;;;;;;;;;;;;;34.24;20.74;97664.75;5052417;28;20388;-85
2023/03/23 09:08:31;;;;;;;;;;;;;;;34.00;18.73;97648.81;5056031;28;19917;-86
2023/03/23 09:11:04;;;;;;;;;;;;;;;34.12;19.81;97640.34;5055385;28;20380;-86
2023/03/23 09:13:31;;;;;;;;;;;;;;;34.29;20.06;97646.88;5055874;28;19921;-86
2023/03/23 09:15:57;;;;;;;;;;;;;;;34.00;19.47;97643.13;5056052;28;20011;-86
2023/03/23 09:18:24;;;;;;;;;;;;;;;34.23;19.39;97648.94;5055925;28;19925;-86
2023/03/23 09:20:50;;;;;;;;;;;;;;;34.18;19.28;97646.84;5055910;28;19924;-86
2023/03/23 09:23:17;;;;;;;;;;;;;;;34.24;19.72;97653.34;5055726;28;19913;-86
2023/03/23 09:25:43;;;;;;;;;;;;;;;34.11;19.50;97644.50;5055055;28;19964;-86
2023/03/23 09:28:09;;;;;;;;;;;;;;;34.11;19.60;97653.81;5054269;28;19939;-86
2023/03/23 09:30:37;;;;;;;;;;;;;;;34.51;19.80;97647.72;5036073;28;19913;-86
2023/03/23 09:33:04;;;;;;;;;;;;;;;34.40;19.35;97656.22;5047698;28;19921;-86
2023/03/23 09:35:32;;;;;;;;;;;;;;;33.93;17.27;97657.09;5054272;28;19962;-86
2023/03/23 09:38:01;;;;;;;;;;;;;;;33.79;19.48;97649.53;5054457;28;19996;-86
2023/03/23 09:40:50;;;;;;;;;;;;;;;34.50;19.01;97651.84;5056168;28;20415;-86
2023/03/23 09:43:27;;;;;;;;;;;;;;;34.71;19.18;97641.78;5054386;28;20266;-86
2023/03/23 09:45:56;;;;;;;;;;;;;;;34.50;19.30;97648.19;5055276;28;20027;-86
2023/03/23 09:48:41;;;;;;;;;;;;;;;34.28;19.27;97636.78;5043770;28;19983;-86
2023/03/23 09:51:27;;;;;;;;;;;;;;;34.36;18.92;97637.81;5035447;28;19948;-86
2023/03/23 09:53:56;;;;;;;;;;;;;;;34.23;19.20;97637.53;5039044;28;19924;-85
2023/03/23 09:56:32;;;;;;;;;;;;;;;34.57;19.31;97639.16;5055159;28;19928;-86
2023/03/23 09:59:07;;;;;;;;;;;;;;;33.97;20.81;97626.28;5055145;28;19927;-85
2023/03/23 10:01:36;;;;;;;;;;;;;;;34.25;18.92;97632.09;5053184;28;19924;-86
2023/03/23 10:04:12;;;;;;;;;;;;;;;33.36;19.58;97618.22;5054584;28;19925;-86
2023/03/23 10:06:38;;;;;;;;;;;;;;;33.81;18.96;97621.31;5052650;28;19971;-86
2023/03/23 10:09:07;;;;;;;;;;;;;;;33.14;18.04;97614.47;5055370;28;19925;-86
2023/03/23 10:11:37;;;;;;;;;;;;;;;34.00;18.48;97628.13;5053690;28;19921;-86
2023/03/23 10:14:03;;;;;;;;;;;;;;;34.10;16.82;97623.75;5055138;28;20358;-86
2023/03/23 10:16:32;;;;;;;;;;;;;;;34.01;17.35;97621.09;5055164;28;19939;-86
2023/03/23 10:19:07;;;;;;;;;;;;;;;33.72;17.31;97618.69;5054989;28;20383;-86
2023/03/23 10:21:35;;;;;;;;;;;;;;;33.77;17.01;97613.00;5054795;28;20360;-86
2023/03/23 10:24:03;;;;;;;;;;;;;;;32.88;17.68;97614.50;5049402;28;20368;-86
2023/03/23 10:26:37;;;;;;;;;;;;;;;32.53;22.96;97603.38;5052737;28;19970;-86
2023/03/23 10:29:05;;;;;;;;;;;;;;;32.64;22.83;97606.31;5055017;28;19920;-86
2023/03/23 10:31:34;;;;;;;;;;;;;;;33.34;17.05;97611.47;5070115;28;19959;-86
2023/03/23 10:34:08;;;;;;;;;;;;;;;33.19;21.79;97603.09;5053879;28;20022;-86
2023/03/23 10:36:37;;;;;;;;;;;;;;;33.09;18.02;97600.97;5054721;28;19993;-87
2023/03/23 10:39:09;;;;;;;;;;;;;;;32.88;18.32;97591.75;5054342;28;19967;-86
2023/03/23 10:41:35;;;;;;;;;;;;;;;33.24;21.67;97593.81;5053540;28;19917;-86
2023/03/23 10:44:07;;;;;;;;;;;;;;;32.48;17.69;97591.91;5054152;28;19921;-85
2023/03/23 10:46:46;;;;;;;;;;;;;;;33.28;17.32;97596.44;5048528;28;20400;-86
2023/03/23 10:49:16;;;;;;;;;;;;;;;33.91;17.24;97591.31;5047695;28;20026;-86
2023/03/23 10:51:44;;;;;;;;;;;;;;;33.43;18.71;97582.78;5054529;28;20270;-87
2023/03/23 10:54:10;;;;;;;;;;;;;;;33.77;17.08;97595.16;5052773;28;19917;-87
2023/03/23 10:56:44;;;;;;;;;;;;;;;33.37;18.93;97584.84;5054033;28;19973;-85
2023/03/23 10:59:15;;;;;;;;;;;;;;;32.99;16.76;97580.44;5054065;28;19962;-86
2023/03/23 11:01:43;;;;;;;;;;;;;;;32.64;20.60;97580.72;5039236;28;20079;-86
2023/03/23 11:04:15;;;;;;;;;;;;;;;32.34;18.90;97584.28;5041009;28;19917;-86
2023/03/23 11:06:45;;;;;;;;;;;;;;;32.33;18.46;97583.50;5053820;28;19916;-86
2023/03/23 11:09:12;;;;;;;;;;;;;;;31.99;20.41;97587.31;5052612;28;19927;-85
2023/03/23 11:11:42;;;;;;;;;;;;;;;32.19;18.75;97578.72;5054217;28;19917;-88
2023/03/23 11:14:32;;;;;;;;;;;;;;;32.51;17.37;97577.50;5052741;28;19921;-87
2023/03/23 11:17:03;;;;;;;;;;;;;;;32.77;18.64;97565.31;5052961;28;20032;-87
2023/03/23 11:19:31;;;;;;;;;;;;;;;32.58;24.48;97579.13;5054008;28;19920;-86
2023/03/23 11:22:05;;;;;;;;;;;;;;;33.00;18.02;97562.06;5054199;28;20285;-86
2023/03/23 11:24:34;;;;;;;;;;;;;;;33.14;20.47;97568.94;5053883;28;19917;-86
2023/03/23 11:27:02;;;;;;;;;;;;;;;32.64;19.06;97568.56;5052694;28;20011;-85
2023/03/23 11:29:30;;;;;;;;;;;;;;;31.99;17.01;97565.38;5053764;28;19917;-85
2023/03/23 11:31:59;;;;;;;;;;;;;;;32.71;17.76;97563.19;5052713;28;19921;-86
2023/03/23 11:34:30;;;;;;;;;;;;;;;32.64;16.58;97557.19;5053627;28;19983;-85
2023/03/23 11:37:07;;;;;;;;;;;;;;;33.03;18.02;97563.16;5053579;28;19917;-86
2023/03/23 11:39:34;;;;;;;;;;;;;;;33.49;17.49;97557.22;5055892;28;20300;-87
2023/03/23 11:42:11;;;;;;;;;;;;;;;33.46;16.03;97544.78;5057515;28;20031;-86
2023/03/23 11:44:41;;;;;;;;;;;;;;;33.35;20.08;97548.34;5052599;28;19920;-87
2023/03/23 11:47:10;;;;;;;;;;;;;;;33.05;17.36;97546.38;5033593;28;19925;-86
2023/03/23 11:49:44;;;;;;;;;;;;;;;33.50;18.46;97555.91;5033706;28;19966;-86
2023/03/23 11:52:23;;;;;;;;;;;;;;;32.91;21.91;97553.75;5032709;28;19925;-86
2023/03/23 11:54:52;;;;;;;;;;;;;;;33.46;18.65;97563.91;5038244;28;19921;-86
2023/03/23 11:57:18;;;;;;;;;;;;;;;33.07;17.57;97553.09;5053116;28;19921;-87
2023/03/23 11:59:45;;;;;;;;;;;;;;;32.85;17.08;97561.47;5053641;28;19921;-86
2023/03/23 12:02:30;;;;;;;;;;;;;;;32.09;17.44;97546.84;5033952;28;19913;-85
2023/03/23 12:05:15;;;;;;;;;;;;;;;32.46;22.72;97549.78;5036533;28;19924;-85
2023/03/23 12:07:47;;;;;;;;;;;;;;;32.11;20.12;97554.09;5057616;28;20261;-85
2023/03/23 12:10:23;;;;;;;;;;;;;;;30.95;20.32;97571.19;5056590;28;19966;-86
2023/03/23 12:13:07;;;;;;;;;;;;;;;31.33;19.15;97558.84;5054806;28;19924;-86
2023/03/23 12:15:56;;;;;;;;;;;;;;;30.40;24.93;97533.47;5056924;28;20031;-86
2023/03/23 12:18:45;;;;;;;;;;;;;;;31.42;19.71;97556.66;5056833;28;19928;-87
2023/03/23 12:21:15;;;;;;;;;;;;;;;32.05;18.71;97559.72;5051267;28;19923;-86
2023/03/23 12:23:59;;;;;;;;;;;;;;;32.08;18.65;97555.88;5056139;28;20012;-86
2023/03/23 12:26:29;;;;;;;;;;;;;;;32.16;22.78;97556.97;5055870;28;19924;-87
2023/03/23 12:29:19;;;;;;;;;;;;;;;31.37;22.59;97557.34;5057326;28;19916;-86
2023/03/23 12:32:19;;;;;;;;;;;;;;;31.88;22.55;97553.09;5056753;28;19926;-86
2023/03/23 12:35:00;;;;;;;;;;;;;;;31.76;19.88;97551.41;5057061;28;19917;-86
2023/03/23 12:37:35;;;;;;;;;;;;;;;33.09;18.33;97556.25;5057059;28;19947;-86
2023/03/23 12:40:38;;;;;;;;;;;;;;;32.90;21.49;97559.97;5067853;28;19966;-86
2023/03/23 12:43:04;;;;;;;;;;;;;;;32.54;21.19;97567.97;5033588;28;19921;-86
2023/03/23 12:45:48;;;;;;;;;;;;;;;32.57;18.54;97560.50;5036425;28;19921;-86
2023/03/23 12:48:27;;;;;;;;;;;;;;;31.90;18.54;97562.63;5050571;28;19983;-86
2023/03/23 12:50:56;;;;;;;;;;;;;;;31.75;21.95;97564.03;5053192;28;19928;-86
2023/03/23 12:53:35;;;;;;;;;;;;;;;31.57;21.24;97559.44;5056318;28;19917;-86
2023/03/23 12:56:20;;;;;;;;;;;;;;;31.12;18.87;97560.09;5053338;28;20047;-86
2023/03/23 12:58:48;;;;;;;;;;;;;;;31.63;19.70;97563.09;5061486;28;19963;-86
2023/03/23 13:01:25;;;;;;;;;;;;;;;31.50;20.04;97565.53;5044772;28;20374;-86
2023/03/23 13:03:57;;;;;;;;;;;;;;;32.18;19.75;97553.66;5041485;28;19967;-86
2023/03/23 13:06:29;;;;;;;;;;;;;;;32.47;18.55;97557.03;5054916;28;19928;-85